createdAt,value
2022-08-05T00:00:54.927Z,26.90
2022-08-05T00:03:21.507Z,26.90
2022-08-05T00:06:05.446Z,26.90
2022-08-05T00:08:36.160Z,26.90
2022-08-05T00:11:02.960Z,26.90
2022-08-05T00:13:38.194Z,26.90
2022-08-05T00:16:05.199Z,26.90
2022-08-05T00:18:35.018Z,26.90
2022-08-05T00:21:01.559Z,26.90
2022-08-05T00:23:44.617Z,26.90
2022-08-05T00:26:13.063Z,26.90
2022-08-05T00:28:39.712Z,26.90
2022-08-05T00:31:07.648Z,26.90
2022-08-05T00:34:56.203Z,26.90
2022-08-05T00:37:10.959Z,26.90
2022-08-05T00:39:07.403Z,26.90
2022-08-05T00:41:51.622Z,26.90
2022-08-05T00:44:21.900Z,26.90
2022-08-05T00:46:54.311Z,26.80
2022-08-05T00:49:32.750Z,26.80
2022-08-05T00:51:59.556Z,26.80
2022-08-05T00:54:28.051Z,26.80
2022-08-05T00:56:56.572Z,26.80
2022-08-05T00:59:23.093Z,26.80
2022-08-05T01:01:49.678Z,26.80
2022-08-05T01:04:20.159Z,26.80
2022-08-05T01:06:53.410Z,26.80
2022-08-05T01:09:21.534Z,26.80
2022-08-05T01:11:49.204Z,26.80
2022-08-05T01:14:15.828Z,26.80
2022-08-05T01:16:44.134Z,26.80
2022-08-05T01:19:10.939Z,26.80
2022-08-05T01:21:40.811Z,26.80
2022-08-05T01:24:14.200Z,26.80
2022-08-05T01:26:41.076Z,26.80
2022-08-05T01:29:07.593Z,26.70
2022-08-05T01:31:42.757Z,26.80
2022-08-05T01:34:11.795Z,26.70
2022-08-05T01:36:42.287Z,26.80
2022-08-05T01:39:13.693Z,26.80
2022-08-05T01:41:40.290Z,26.70
2022-08-05T01:44:11.165Z,26.70
2022-08-05T01:46:41.896Z,26.70
2022-08-05T01:49:23.330Z,26.70
2022-08-05T01:51:51.962Z,26.70
2022-08-05T01:54:18.565Z,26.70
2022-08-05T01:58:09.563Z,26.60
2022-08-05T01:59:38.548Z,26.70
2022-08-05T02:02:05.154Z,26.70
2022-08-05T02:04:37.406Z,26.70
2022-08-05T02:07:07.155Z,26.70
2022-08-05T02:09:33.671Z,26.70
2022-08-05T02:12:02.136Z,26.60
2022-08-05T02:14:28.716Z,26.70
2022-08-05T02:16:58.483Z,26.70
2022-08-05T02:19:25.218Z,26.70
2022-08-05T02:21:53.850Z,26.70
2022-08-05T02:24:23.093Z,26.70
2022-08-05T02:26:51.822Z,26.70
2022-08-05T02:29:24.265Z,26.70
2022-08-05T02:31:52.835Z,26.70
2022-08-05T02:34:22.588Z,26.70
2022-08-05T02:36:49.410Z,26.70
2022-08-05T02:39:16.026Z,26.70
2022-08-05T02:42:00.613Z,26.70
2022-08-05T02:44:27.954Z,26.60
2022-08-05T02:47:00.165Z,26.70
2022-08-05T02:49:27.111Z,26.60
2022-08-05T02:52:04.630Z,26.70
2022-08-05T02:54:36.414Z,26.60
2022-08-05T02:57:05.087Z,26.70
2022-08-05T02:59:48.097Z,26.60
2022-08-05T03:02:17.293Z,26.60
2022-08-05T03:04:44.215Z,26.60
2022-08-05T03:07:24.607Z,26.60
2022-08-05T03:09:57.227Z,26.60
2022-08-05T03:12:23.747Z,26.60
2022-08-05T03:14:50.258Z,26.60
2022-08-05T03:17:16.762Z,26.60
2022-08-05T03:19:45.524Z,26.60
2022-08-05T03:22:16.380Z,26.50
2022-08-05T03:24:47.227Z,26.60
2022-08-05T03:27:17.390Z,26.50
2022-08-05T03:29:45.635Z,26.60
2022-08-05T03:32:30.881Z,26.60
2022-08-05T03:34:57.923Z,26.60
2022-08-05T03:37:24.572Z,26.60
2022-08-05T03:39:58.509Z,26.50
2022-08-05T03:42:27.214Z,26.50
2022-08-05T03:44:55.768Z,26.50
2022-08-05T03:47:23.872Z,26.30
2022-08-05T03:49:51.669Z,26.50
2022-08-05T03:52:38.511Z,26.50
2022-08-05T03:56:05.325Z,26.50
2022-08-05T03:57:51.809Z,26.50
2022-08-05T04:00:19.600Z,26.50
2022-08-05T04:02:57.519Z,26.40
2022-08-05T04:05:24.819Z,26.40
2022-08-05T04:07:58.589Z,26.40
2022-08-05T04:10:25.494Z,26.50
2022-08-05T04:12:54.530Z,26.40
2022-08-05T04:15:21.370Z,26.50
2022-08-05T04:17:56.160Z,26.50
2022-08-05T04:20:24.069Z,26.60
2022-08-05T04:22:50.601Z,26.50
2022-08-05T04:25:17.150Z,26.50
2022-08-05T04:27:57.490Z,26.50
2022-08-05T04:30:26.433Z,26.50
2022-08-05T04:32:53.179Z,26.50
2022-08-05T04:35:20.069Z,26.50
2022-08-05T04:38:02.797Z,26.60
2022-08-05T04:40:33.208Z,26.50
2022-08-05T04:42:59.715Z,26.50
2022-08-05T04:45:48.434Z,26.40
2022-08-05T04:48:18.615Z,26.40
2022-08-05T04:51:03.288Z,26.40
2022-08-05T04:53:38.647Z,26.50
2022-08-05T04:56:33.807Z,26.50
2022-08-05T04:58:51.977Z,26.50
2022-08-05T05:02:05.532Z,26.40
2022-08-05T05:04:05.575Z,26.40
2022-08-05T05:06:35.997Z,26.40
2022-08-05T05:09:10.592Z,26.40
2022-08-05T05:11:48.505Z,26.40
2022-08-05T05:14:31.365Z,26.40
2022-08-05T05:16:58.645Z,26.40
2022-08-05T05:19:27.361Z,26.40
2022-08-05T05:22:03.565Z,26.40
2022-08-05T05:24:58.637Z,26.40
2022-08-05T05:27:44.793Z,26.40
2022-08-05T05:30:28.770Z,26.50
2022-08-05T05:32:57.296Z,26.40
2022-08-05T05:35:27.637Z,26.40
2022-08-05T05:37:59.557Z,26.40
2022-08-05T05:40:27.196Z,26.40
2022-08-05T05:42:54.655Z,26.40
2022-08-05T05:45:22.871Z,26.40
2022-08-05T05:48:06.534Z,26.50
2022-08-05T05:50:33.968Z,26.40
2022-08-05T05:53:00.682Z,26.40
2022-08-05T05:55:52.163Z,26.40
2022-08-05T05:58:13.754Z,26.40
2022-08-05T06:00:40.804Z,26.40
2022-08-05T06:03:40.719Z,26.40
2022-08-05T06:05:59.028Z,26.30
2022-08-05T06:08:32.574Z,26.40
2022-08-05T06:10:59.351Z,26.40
2022-08-05T06:13:26.832Z,26.50
2022-08-05T06:16:30.696Z,26.40
2022-08-05T06:18:39.903Z,26.30
2022-08-05T06:21:07.943Z,26.40
2022-08-05T06:23:44.153Z,26.40
2022-08-05T06:26:13.723Z,26.30
2022-08-05T06:28:47.677Z,26.30
2022-08-05T06:31:17.866Z,26.40
2022-08-05T06:34:07.983Z,26.30
2022-08-05T06:36:37.357Z,26.40
2022-08-05T06:39:17.935Z,26.40
2022-08-05T06:41:48.354Z,26.40
2022-08-05T06:44:15.147Z,26.30
2022-08-05T06:46:41.950Z,26.30
2022-08-05T06:49:09.092Z,26.30
2022-08-05T06:51:40.780Z,26.30
2022-08-05T06:54:07.481Z,26.30
2022-08-05T06:56:35.211Z,26.30
2022-08-05T06:59:01.859Z,26.20
2022-08-05T07:01:32.279Z,26.30
2022-08-05T07:03:59.437Z,26.20
2022-08-05T07:06:27.731Z,26.30
2022-08-05T07:08:55.212Z,26.30
2022-08-05T07:11:22.208Z,26.30
2022-08-05T07:13:57.864Z,26.30
2022-08-05T07:18:00.691Z,26.30
2022-08-05T07:19:16.082Z,26.30
2022-08-05T07:22:01.314Z,26.30
2022-08-05T07:24:29.994Z,26.30
2022-08-05T07:26:56.559Z,26.30
2022-08-05T07:29:25.526Z,26.30
2022-08-05T07:32:09.590Z,26.20
2022-08-05T07:34:40.486Z,26.20
2022-08-05T07:37:11.607Z,26.20
2022-08-05T07:40:04.770Z,26.20
2022-08-05T07:42:33.384Z,26.20
2022-08-05T07:45:00.494Z,26.20
2022-08-05T07:47:27.062Z,26.30
2022-08-05T07:50:06.914Z,26.30
2022-08-05T07:52:33.623Z,26.30
2022-08-05T07:55:00.457Z,26.20
2022-08-05T07:57:52.216Z,26.20
2022-08-05T08:00:13.487Z,26.20
2022-08-05T08:03:15.088Z,26.20
2022-08-05T08:05:27.586Z,26.20
2022-08-05T08:07:59.975Z,26.20
2022-08-05T08:10:27.098Z,26.20
2022-08-05T08:12:53.628Z,26.10
2022-08-05T08:15:37.201Z,26.00
2022-08-05T08:18:09.901Z,26.00
2022-08-05T08:20:43.759Z,26.10
2022-08-05T08:24:02.311Z,26.10
2022-08-05T08:26:00.503Z,26.10
2022-08-05T08:28:37.138Z,26.10
2022-08-05T08:31:08.983Z,26.10
2022-08-05T08:33:37.415Z,26.20
2022-08-05T08:36:38.852Z,26.20
2022-08-05T08:38:53.205Z,26.20
2022-08-05T08:41:20.078Z,26.10
2022-08-05T08:45:21.319Z,26.10
2022-08-05T08:46:39.043Z,26.10
2022-08-05T08:50:04.045Z,26.10
2022-08-05T08:52:05.804Z,26.10
2022-08-05T08:54:38.996Z,26.10
2022-08-05T08:57:11.369Z,26.10
2022-08-05T08:59:38.172Z,26.10
2022-08-05T09:02:08.450Z,26.10
2022-08-05T09:04:35.351Z,26.10
2022-08-05T09:07:28.454Z,26.10
2022-08-05T09:09:55.774Z,26.10
2022-08-05T09:12:27.302Z,26.10
2022-08-05T09:15:04.055Z,26.10
2022-08-05T09:17:42.358Z,26.10
2022-08-05T09:20:09.888Z,26.00
2022-08-05T09:22:36.573Z,26.10
2022-08-05T09:25:13.711Z,26.00
2022-08-05T09:28:05.094Z,26.10
2022-08-05T09:30:32.840Z,26.10
2022-08-05T09:32:59.586Z,26.10
2022-08-05T09:35:27.077Z,26.00
2022-08-05T09:38:17.691Z,26.00
2022-08-05T09:40:40.571Z,26.10
2022-08-05T09:43:19.300Z,26.00
2022-08-05T09:46:06.465Z,26.10
2022-08-05T09:48:33.157Z,26.10
2022-08-05T09:51:00.232Z,26.10
2022-08-05T09:53:53.410Z,26.10
2022-08-05T09:56:13.663Z,26.10
2022-08-05T09:58:41.959Z,26.00
2022-08-05T10:01:14.696Z,26.10
2022-08-05T10:03:59.215Z,26.00
2022-08-05T10:06:26.215Z,26.00
2022-08-05T10:08:55.540Z,26.10
2022-08-05T10:11:22.825Z,26.00
2022-08-05T10:13:49.513Z,26.10
2022-08-05T10:16:21.340Z,26.00
2022-08-05T10:18:48.188Z,26.10
2022-08-05T10:21:15.705Z,26.10
2022-08-05T10:23:59.251Z,26.00
2022-08-05T10:26:32.298Z,26.10
2022-08-05T10:29:00.476Z,26.10
2022-08-05T10:33:02.200Z,26.10
2022-08-05T10:34:13.645Z,26.10
2022-08-05T10:36:40.847Z,26.10
2022-08-05T10:39:10.504Z,26.10
2022-08-05T10:41:46.995Z,26.10
2022-08-05T10:44:13.788Z,26.00
2022-08-05T10:46:42.410Z,26.10
2022-08-05T10:49:10.604Z,26.10
2022-08-05T10:51:48.670Z,26.10
2022-08-05T10:54:29.983Z,26.10
2022-08-05T10:57:00.302Z,26.10
2022-08-05T11:00:04.150Z,26.10
2022-08-05T11:02:14.286Z,26.10
2022-08-05T11:05:00.142Z,26.10
2022-08-05T11:07:33.175Z,26.20
2022-08-05T11:10:13.395Z,26.10
2022-08-05T11:12:41.299Z,26.10
2022-08-05T11:15:19.810Z,26.20
2022-08-05T11:18:07.473Z,26.20
2022-08-05T11:20:33.666Z,26.20
2022-08-05T11:23:05.804Z,26.20
2022-08-05T11:26:05.144Z,26.20
2022-08-05T11:28:22.384Z,26.20
2022-08-05T11:30:53.337Z,26.20
2022-08-05T11:33:21.466Z,26.20
2022-08-05T11:36:07.681Z,26.20
2022-08-05T11:38:37.323Z,26.20
2022-08-05T11:41:34.679Z,26.20
2022-08-05T11:44:06.070Z,26.20
2022-08-05T11:46:34.252Z,26.30
2022-08-05T11:49:01.509Z,26.10
2022-08-05T11:51:43.798Z,26.20
2022-08-05T11:54:14.656Z,26.20
2022-08-05T11:56:41.403Z,26.30
2022-08-05T11:59:13.796Z,26.20
2022-08-05T12:01:40.536Z,26.30
2022-08-05T12:04:07.065Z,26.30
2022-08-05T12:06:33.590Z,26.30
2022-08-05T12:09:01.169Z,26.30
2022-08-05T12:11:39.760Z,26.30
2022-08-05T12:14:07.181Z,26.30
2022-08-05T12:16:33.766Z,26.30
2022-08-05T12:19:05.100Z,26.30
2022-08-05T12:21:39.177Z,26.30
2022-08-05T12:24:06.715Z,26.30
2022-08-05T12:26:33.914Z,26.40
2022-08-05T12:29:01.492Z,26.30
2022-08-05T12:31:42.402Z,26.40
2022-08-05T12:34:20.654Z,26.30
2022-08-05T12:36:48.194Z,26.30
2022-08-05T12:39:14.775Z,26.30
2022-08-05T12:41:43.591Z,26.30
2022-08-05T12:44:11.538Z,26.40
2022-08-05T12:46:40.848Z,26.40
2022-08-05T12:49:13.424Z,26.40
2022-08-05T12:52:12.687Z,26.40
2022-08-05T12:54:26.990Z,26.40
2022-08-05T12:56:53.560Z,26.40
2022-08-05T12:59:21.022Z,26.40
2022-08-05T13:02:00.102Z,26.40
2022-08-05T13:04:32.881Z,26.30
2022-08-05T13:06:59.685Z,26.30
2022-08-05T13:09:28.065Z,26.40
2022-08-05T13:12:01.953Z,26.40
2022-08-05T13:14:36.630Z,26.40
2022-08-05T13:17:03.329Z,26.40
2022-08-05T13:19:50.975Z,26.40
2022-08-05T13:22:29.366Z,26.40
2022-08-05T13:24:57.890Z,26.40
2022-08-05T13:27:37.740Z,26.40
2022-08-05T13:30:34.451Z,26.40
2022-08-05T13:32:51.484Z,26.40
2022-08-05T13:35:22.275Z,26.40
2022-08-05T13:38:06.036Z,26.40
2022-08-05T13:40:51.939Z,26.40
2022-08-05T13:43:22.015Z,26.40
2022-08-05T13:45:48.867Z,26.40
2022-08-05T13:48:57.308Z,26.40
2022-08-05T13:51:03.949Z,26.40
2022-08-05T13:53:31.153Z,26.40
2022-08-05T13:56:01.970Z,26.40
2022-08-05T13:58:30.836Z,26.40
2022-08-05T14:00:57.721Z,26.40
2022-08-05T14:03:24.369Z,26.40
2022-08-05T14:06:26.472Z,26.40
2022-08-05T14:08:37.551Z,26.40
2022-08-05T14:11:20.237Z,26.40
2022-08-05T14:13:48.529Z,26.40
2022-08-05T14:16:22.807Z,26.40
2022-08-05T14:18:50.095Z,26.40
2022-08-05T14:22:08.415Z,26.40
2022-08-05T14:24:04.777Z,26.30
2022-08-05T14:26:38.382Z,26.40
2022-08-05T14:29:16.567Z,26.40
2022-08-05T14:31:54.285Z,26.50
2022-08-05T14:34:30.155Z,26.40
2022-08-05T14:37:02.275Z,26.40
2022-08-05T14:39:29.304Z,26.50
2022-08-05T14:42:19.141Z,26.50
2022-08-05T14:44:42.409Z,26.50
2022-08-05T14:47:09.499Z,26.50
2022-08-05T14:49:59.541Z,26.50
2022-08-05T14:52:50.468Z,26.50
2022-08-05T14:55:09.110Z,26.50
2022-08-05T14:57:54.046Z,26.40
2022-08-05T15:00:28.026Z,26.40
2022-08-05T15:02:56.039Z,26.40
2022-08-05T15:05:30.010Z,26.40
2022-08-05T15:08:16.006Z,26.50
2022-08-05T15:10:46.089Z,26.50
2022-08-05T15:13:13.278Z,26.50
2022-08-05T15:15:54.494Z,26.50
2022-08-05T15:18:22.870Z,26.50
2022-08-05T15:20:49.664Z,26.50
2022-08-05T15:23:17.503Z,26.50
2022-08-05T15:25:52.225Z,26.40
2022-08-05T15:28:21.736Z,26.50
2022-08-05T15:30:54.055Z,26.40
2022-08-05T15:33:56.961Z,26.50
2022-08-05T15:36:16.900Z,26.50
2022-08-05T15:38:50.560Z,26.50
2022-08-05T15:41:58.549Z,26.50
2022-08-05T15:44:30.360Z,26.50
2022-08-05T15:46:57.275Z,26.50
2022-08-05T15:49:41.953Z,26.50
2022-08-05T15:52:16.771Z,26.50
2022-08-05T15:54:56.816Z,26.50
2022-08-05T15:57:23.581Z,26.50
2022-08-05T15:59:54.007Z,26.50
2022-08-05T16:02:25.479Z,26.50
2022-08-05T16:04:54.129Z,26.50
2022-08-05T16:07:20.657Z,26.50
2022-08-05T16:09:49.506Z,26.50
2022-08-05T16:12:16.056Z,26.50
2022-08-05T16:14:42.583Z,26.50
2022-08-05T16:17:09.948Z,26.50
2022-08-05T16:20:04.168Z,26.50
2022-08-05T16:22:27.541Z,26.50
2022-08-05T16:25:00.703Z,26.50
2022-08-05T16:28:00.220Z,26.50
2022-08-05T16:30:25.523Z,26.50
2022-08-05T16:32:53.322Z,26.50
2022-08-05T16:35:19.841Z,26.50
2022-08-05T16:38:15.022Z,26.50
2022-08-05T16:40:41.294Z,26.50
2022-08-05T16:43:07.879Z,26.50
2022-08-05T16:46:07.387Z,26.40
2022-08-05T16:48:25.591Z,26.40
2022-08-05T16:50:59.648Z,26.40
2022-08-05T16:54:02.141Z,26.40
2022-08-05T16:56:13.157Z,26.40
2022-08-05T16:58:40.119Z,26.40
2022-08-05T17:01:09.326Z,26.40
2022-08-05T17:03:37.044Z,26.50
2022-08-05T17:06:03.578Z,26.40
2022-08-05T17:08:36.685Z,26.40
2022-08-05T17:11:17.513Z,26.40
2022-08-05T17:13:44.066Z,26.40
2022-08-05T17:16:29.863Z,26.30
2022-08-05T17:18:57.124Z,26.40
2022-08-05T17:21:23.934Z,26.40
2022-08-05T17:24:03.742Z,26.30
2022-08-05T17:26:34.754Z,26.30
2022-08-05T17:29:04.175Z,26.30
2022-08-05T17:31:57.268Z,26.30
2022-08-05T17:34:17.878Z,26.30
2022-08-05T17:36:44.692Z,26.40
2022-08-05T17:39:24.538Z,26.40
2022-08-05T17:42:19.821Z,26.30
2022-08-05T17:44:50.387Z,26.40
2022-08-05T17:47:17.796Z,26.40
2022-08-05T17:50:04.328Z,26.40
2022-08-05T17:52:52.585Z,26.30
2022-08-05T17:55:19.471Z,26.40
2022-08-05T17:57:48.731Z,26.40
2022-08-05T18:00:16.926Z,26.40
2022-08-05T18:02:43.456Z,26.30
2022-08-05T18:05:10.087Z,26.40
2022-08-05T18:07:41.445Z,26.30
2022-08-05T18:10:10.411Z,26.30
2022-08-05T18:12:37.442Z,26.40
2022-08-05T18:15:04.035Z,26.40
2022-08-05T18:18:00.313Z,26.40
2022-08-05T18:20:17.866Z,26.30
2022-08-05T18:22:54.775Z,26.30
2022-08-05T18:25:23.771Z,26.30
2022-08-05T18:27:52.611Z,26.30
2022-08-05T18:30:19.312Z,26.30
2022-08-05T18:32:53.386Z,26.30
2022-08-05T18:35:59.899Z,26.30
2022-08-05T18:38:16.471Z,26.20
2022-08-05T18:41:56.163Z,26.20
2022-08-05T18:43:38.103Z,26.30
2022-08-05T18:46:04.945Z,26.20
2022-08-05T18:48:33.229Z,26.30
2022-08-05T18:51:49.572Z,26.20
2022-08-05T18:53:50.514Z,26.20
2022-08-05T18:56:17.213Z,26.20
2022-08-05T18:58:48.363Z,26.20
2022-08-05T19:01:18.212Z,26.20
2022-08-05T19:03:52.966Z,26.20
2022-08-05T19:06:34.384Z,26.20
2022-08-05T19:09:08.845Z,26.10
2022-08-05T19:11:37.078Z,26.10
2022-08-05T19:14:59.105Z,26.10
2022-08-05T19:17:08.430Z,26.10
2022-08-05T19:19:34.996Z,26.10
2022-08-05T19:22:01.729Z,26.10
2022-08-05T19:24:34.451Z,26.10
2022-08-05T19:27:04.054Z,26.10
2022-08-05T19:29:35.938Z,26.10
2022-08-05T19:32:03.083Z,26.10
2022-08-05T19:34:31.012Z,26.00
2022-08-05T19:36:57.549Z,26.10
2022-08-05T19:39:24.119Z,26.00
2022-08-05T19:42:07.102Z,26.10
2022-08-05T19:44:44.505Z,26.00
2022-08-05T19:47:11.963Z,26.00
2022-08-05T19:49:41.911Z,26.00
2022-08-05T19:52:30.694Z,26.00
2022-08-05T19:54:55.116Z,26.00
2022-08-05T19:57:47.498Z,26.00
2022-08-05T20:00:08.346Z,26.00
2022-08-05T20:02:35.958Z,26.00
2022-08-05T20:05:04.857Z,26.00
2022-08-05T20:07:47.008Z,26.00
2022-08-05T20:10:15.036Z,25.90
2022-08-05T20:12:48.384Z,25.90
2022-08-05T20:15:15.886Z,25.90
2022-08-05T20:18:02.410Z,26.00
2022-08-05T20:20:29.809Z,25.90
2022-08-05T20:22:56.322Z,25.90
2022-08-05T20:25:24.980Z,25.90
2022-08-05T20:28:00.417Z,25.90
2022-08-05T20:30:28.013Z,25.90
2022-08-05T20:32:54.540Z,25.90
2022-08-05T20:35:21.083Z,25.90
2022-08-05T20:38:06.256Z,25.80
2022-08-05T20:40:34.704Z,25.80
2022-08-05T20:43:01.240Z,25.80
2022-08-05T20:45:56.150Z,25.80
2022-08-05T20:48:16.678Z,25.80
2022-08-05T20:50:45.541Z,25.80
2022-08-05T20:53:16.328Z,25.80
2022-08-05T20:56:09.111Z,25.80
2022-08-05T20:58:36.147Z,25.70
2022-08-05T21:01:03.685Z,25.70
2022-08-05T21:03:30.622Z,25.70
2022-08-05T21:06:01.287Z,25.70
2022-08-05T21:08:32.957Z,25.70
2022-08-05T21:11:09.201Z,25.70
2022-08-05T21:13:56.103Z,25.70
2022-08-05T21:16:23.416Z,25.70
2022-08-05T21:18:56.795Z,25.60
2022-08-05T21:21:26.722Z,25.60
2022-08-05T21:24:06.445Z,25.60
2022-08-05T21:26:33.793Z,25.60
2022-08-05T21:29:03.623Z,25.60
2022-08-05T21:31:41.639Z,25.60
2022-08-05T21:34:08.343Z,25.60
2022-08-05T21:36:37.194Z,25.60
2022-08-05T21:39:03.802Z,25.60
2022-08-05T21:41:35.537Z,25.60
2022-08-05T21:44:04.430Z,25.60
2022-08-05T21:46:31.500Z,25.60
2022-08-05T21:49:00.882Z,25.60
2022-08-05T21:52:16.658Z,25.60
2022-08-05T21:54:13.942Z,25.50
2022-08-05T21:56:44.647Z,25.50
2022-08-05T21:59:22.509Z,25.40
2022-08-05T22:01:50.680Z,25.60
2022-08-05T22:04:20.911Z,25.50
2022-08-05T22:06:52.025Z,25.50
2022-08-05T22:09:21.471Z,25.50
2022-08-05T22:11:48.298Z,25.50
2022-08-05T22:14:33.491Z,25.50
2022-08-05T22:17:04.980Z,25.50
2022-08-05T22:19:57.266Z,25.50
2022-08-05T22:22:26.613Z,25.50
2022-08-05T22:24:59.160Z,25.50
2022-08-05T22:27:25.681Z,25.40
2022-08-05T22:30:12.213Z,25.40
2022-08-05T22:32:39.971Z,25.40
2022-08-05T22:35:11.145Z,25.40
2022-08-05T22:37:59.353Z,25.40
2022-08-05T22:40:24.624Z,25.40
2022-08-05T22:42:57.761Z,25.40
2022-08-05T22:45:24.651Z,25.40
2022-08-05T22:47:55.317Z,25.30
2022-08-05T22:50:27.796Z,25.30
2022-08-05T22:52:54.515Z,25.50
2022-08-05T22:55:21.387Z,25.30
2022-08-05T22:57:49.122Z,25.40
2022-08-05T23:00:18.281Z,25.40
2022-08-05T23:02:47.647Z,25.30
2022-08-05T23:05:14.889Z,25.30
2022-08-05T23:07:48.379Z,25.30
2022-08-05T23:10:16.155Z,25.30
2022-08-05T23:12:46.267Z,25.30
2022-08-05T23:15:12.805Z,25.30
2022-08-05T23:18:01.025Z,25.30
2022-08-05T23:20:27.708Z,25.30
2022-08-05T23:22:56.280Z,25.30
2022-08-05T23:25:53.687Z,25.30
2022-08-05T23:28:09.628Z,25.30
2022-08-05T23:30:40.338Z,25.30
2022-08-05T23:33:16.310Z,25.30
2022-08-05T23:35:55.907Z,25.30
2022-08-05T23:38:22.812Z,25.30
2022-08-05T23:40:50.698Z,25.20
2022-08-05T23:43:25.350Z,25.20
2022-08-05T23:46:04.057Z,25.20
2022-08-05T23:48:30.594Z,25.20
2022-08-05T23:50:57.159Z,25.20
2022-08-05T23:53:28.515Z,25.30
2022-08-05T23:56:11.731Z,25.20
2022-08-05T23:58:38.475Z,25.30
